Terminal Aerodrome Forecast
Issued by NWS

Home | Current Version | Previous Version | Text Only | Print | Product List | Glossary On
Versions: 1 2 3 4 5 6 7 8 9 10 11 12 13 14 15 16 17 18 19 20 21 22 23 24 25 26 27 28 29 30 31 32
000
FTUS44 KHGX 251120
TAFIAH
TAF
KIAH 251120Z 2512/2618 VRB03KT P6SM FEW015 SCT250
     FM251500 15004KT P6SM SCT025 SCT250
     FM251900 16006KT P6SM VCTS BKN050CB BKN250
     FM260000 09006KT P6SM FEW060 BKN250
     FM260900 00000KT P6SM FEW020 BKN250
     FM261300 07005KT P6SM VCSH FEW015 SCT025 BKN150=

USA.gov is the U.S. government's official web portal to all federal, state and local government web resources and services.